• Join FlightAware (Why Join?)
  • Login
  • US Flag 
09:02AM EDT


 

Airport Tracker/Info


-or-


 

Live Flight TrackerFlight Track Log ✈ N210SY ✈ 01-May-2013 ✈ KVTA - KLEX

Flight Track Log - Related Links

Times and Time Zones

All times are in EDT time to prevent confusion due to time zone crossing. See the N210SY flight status page for this flight to view local times or setup timezone preferences in your user account.

Time Position Orientation Groundspeed Altitude Reporting Facility
EDT Latitude Longitude Course Direction KTS MPH feet Rate Location/Type
02:55PM 40.0025 -82.4314 228° Southwest 148 170 2,000  Level Indianapolis Center
02:55PM 39.9886 -82.4517 228° Southwest 125 144 2,300 540 Climbing Indianapolis Center
02:56PM 39.9614 -82.4839 222° Southwest 131 151 2,900 600 Climbing Indianapolis Center
02:57PM 39.9503 -82.4969 222° Southwest 128 147 3,200 540 Climbing Indianapolis Center
02:57PM 39.9364 -82.5139 223° Southwest 129 148 3,500 480 Climbing Indianapolis Center
02:58PM 39.9242 -82.5294 224° Southwest 129 148 3,700 600 Climbing Indianapolis Center
02:58PM 39.9117 -82.5439 222° Southwest 129 148 4,100 540 Climbing Indianapolis Center
02:59PM 39.8975 -82.5592 220° Southwest 127 146 4,300 540 Climbing Indianapolis Center
02:59PM 39.8844 -82.5736 220° Southwest 124 143 4,700 540 Climbing Indianapolis Center
03:00PM 39.8714 -82.5897 223° Southwest 125 144 4,900 480 Climbing Indianapolis Center
03:00PM 39.8597 -82.6033 222° Southwest 124 143 5,200 480 Climbing Indianapolis Center
03:01PM 39.8453 -82.6219 225° Southwest 127 146 5,400 480 Climbing Indianapolis Center
03:01PM 39.8322 -82.6383 224° Southwest 129 148 5,700 540 Climbing Indianapolis Center
03:02PM 39.8194 -82.6522 220° Southwest 125 144 6,000 600 Climbing Indianapolis Center
03:02PM 39.8050 -82.6706 224° Southwest 132 152 6,300 540 Climbing Indianapolis Center
03:03PM 39.7922 -82.6872 225° Southwest 132 152 6,600 480 Climbing Indianapolis Center
03:03PM 39.7797 -82.7031 224° Southwest 130 150 6,800 480 Climbing Indianapolis Center
03:04PM 39.7617 -82.7247 223° Southwest 130 150 7,100 360 Climbing Indianapolis Center
03:04PM 39.7525 -82.7353 222° Southwest 129 148 7,200 360 Climbing Indianapolis Center
03:05PM 39.7342 -82.7556 220° Southwest 129 148 7,500 360 Climbing Indianapolis Center
03:05PM 39.7256 -82.7650 220° Southwest 131 151 7,600 240 Climbing Indianapolis Center
03:06PM 39.7053 -82.7872 220° Southwest 133 153 7,800 300 Climbing Indianapolis Center
03:07PM 39.6764 -82.8189 220° Southwest 135 155 8,200 180 Climbing Indianapolis Center
03:08PM 39.6444 -82.8561 222° Southwest 147 169 8,200 -60 Level Indianapolis Center
03:09PM 39.6100 -82.8953 221° Southwest 158 182 8,100  Descending Indianapolis Center
03:10PM 39.5750 -82.9319 219° Southwest 160 184 8,200  Climbing Indianapolis Center
03:11PM 39.5408 -82.9694 220° Southwest 159 183 8,200 -60 Level Indianapolis Center
03:12PM 39.4986 -83.0164 221° Southwest 167 192 8,100 -60 Descending Indianapolis Center
03:13PM 39.4642 -83.0569 222° Southwest 167 192 8,100  Level Indianapolis Center
03:14PM 39.4289 -83.0978 222° Southwest 167 192 8,200  Climbing Indianapolis Center
03:15PM 39.3956 -83.1372 222° Southwest 164 189 8,100  Descending Indianapolis Center
03:16PM 39.3614 -83.1764 222° Southwest 162 186 8,200  Climbing Indianapolis Center
03:17PM 39.3264 -83.2175 222° Southwest 166 191 8,100  Descending Indianapolis Center
03:18PM 39.2917 -83.2558 221° Southwest 165 190 8,200  Climbing Indianapolis Center
03:19PM 39.2572 -83.2944 221° Southwest 163 188 8,100  Descending Indianapolis Center
03:20PM 39.2181 -83.3394 222° Southwest 160 184 8,200  Climbing Indianapolis Center
03:22PM 39.1844 -83.3775 221° Southwest 160 184 8,100 -60 Descending Indianapolis Center
03:23PM 39.1506 -83.4167 222° Southwest 162 186 8,100 -60 Level Indianapolis Center
03:24PM 39.1164 -83.4575 223° Southwest 166 191 8,000  Descending Indianapolis Center
03:25PM 39.0831 -83.4967 222° Southwest 162 186 8,100  Climbing Indianapolis Center
03:26PM 39.0508 -83.5361 224° Southwest 160 184 8,100  Level Indianapolis Center
03:27PM 39.0178 -83.5756 223° Southwest 159 183 8,100  Level Indianapolis Center
03:28PM 38.9864 -83.6144 224° Southwest 157 181 8,100 -60 Level Indianapolis Center
03:29PM 38.9478 -83.6592 222° Southwest 158 182 8,000  Descending Indianapolis Center
03:30PM 38.9144 -83.6972 222° Southwest 158 182 8,100  Climbing Indianapolis Center
03:31PM 38.8803 -83.7350 221° Southwest 161 185 8,100  Level Indianapolis Center
03:32PM 38.8458 -83.7731 221° Southwest 162 186 8,100  Level Indianapolis Center
03:33PM 38.8117 -83.8114 221° Southwest 163 188 8,100  Level Indianapolis Center
03:34PM 38.7772 -83.8486 220° Southwest 159 183 8,100 -60 Level Indianapolis Center
03:35PM 38.7428 -83.8872 221° Southwest 162 186 8,000  Descending Indianapolis Center
03:36PM 38.7042 -83.9339 223° Southwest 162 186 8,100  Climbing Indianapolis Center
03:37PM 38.6706 -83.9733 223° Southwest 162 186 8,000  Descending Indianapolis Center
03:38PM 38.6356 -84.0144 223° Southwest 161 185 8,100  Climbing Indianapolis Center
03:39PM 38.6025 -84.0522 222° Southwest 158 182 8,100  Level Indianapolis Center
03:40PM 38.5681 -84.0864 218° Southwest 158 182 8,100  Level Indianapolis Center
03:41PM 38.5331 -84.1236 220° Southwest 160 184 8,100  Level Indianapolis Center
03:42PM 38.4986 -84.1597 219° Southwest 161 185 8,100  Level Indianapolis Center
03:43PM 38.4639 -84.1972 220° Southwest 162 186 8,100  Level Indianapolis Center
03:44PM 38.4233 -84.2389 219° Southwest 160 184 8,100  Level Indianapolis Center
03:45PM 38.3886 -84.2767 220° Southwest 163 188 8,100  Level Indianapolis Center
03:46PM 38.3542 -84.3136 220° Southwest 163 188 8,100 -300 Level Indianapolis Center
03:47PM 38.3189 -84.3497 219° Southwest 161 185 7,600 -600 Descending Indianapolis Center
03:48PM 38.2869 -84.3989 230° Southwest 170 196 6,900 -660 Descending Indianapolis Center
03:49PM 38.2525 -84.4639 236° Southwest 182 209 6,300 -780 Descending Indianapolis Center
03:50PM 38.2211 -84.5186 234° Southwest 186 214 5,400 -840 Descending Indianapolis Center
03:51PM 38.1844 -84.5644 225° Southwest 186 214 4,600 -720 Descending Indianapolis Center
03:53PM 38.1469 -84.6069 222° Southwest 184 212 4,000 -300 Descending Indianapolis Center
03:54PM 38.1150 -84.6458 224° Southwest 177 204 4,100 -300 Climbing Indianapolis Center
03:55PM 38.0803 -84.6856 222° Southwest 162 186 3,400 -540 Descending Indianapolis Center
03:56PM 38.0508 -84.7117 215° Southwest 159 183 3,100 -300 Descending Indianapolis Center
03:58PM 38.0371 -84.6113 218° Southwest  Level Estimated
04:05PM 38.0368 -84.6086 218° Southwest  Level Estimated